sensor_id;sensor_type;location;lat;lon;timestamp;temperature;humidity
21023;DHT22;10669;51.076;3.714;2023-02-27T00:00:07;2.10;1.00
21023;DHT22;10669;51.076;3.714;2023-02-27T00:02:46;2.10;1.00
21023;DHT22;10669;51.076;3.714;2023-02-27T00:05:11;2.00;1.00
21023;DHT22;10669;51.076;3.714;2023-02-27T00:07:37;2.00;1.00
21023;DHT22;10669;51.076;3.714;2023-02-27T00:10:04;2.00;1.00
21023;DHT22;10669;51.076;3.714;2023-02-27T00:12:32;1.90;1.00
21023;DHT22;10669;51.076;3.714;2023-02-27T00:15:04;1.90;1.00
21023;DHT22;10669;51.076;3.714;2023-02-27T00:17:34;1.90;1.00
21023;DHT22;10669;51.076;3.714;2023-02-27T00:20:00;1.90;1.00
21023;DHT22;10669;51.076;3.714;2023-02-27T00:22:27;1.90;1.00
21023;DHT22;10669;51.076;3.714;2023-02-27T00:27:36;1.80;1.00
21023;DHT22;10669;51.076;3.714;2023-02-27T00:30:08;1.80;1.00
21023;DHT22;10669;51.076;3.714;2023-02-27T00:32:36;1.80;1.00
21023;DHT22;10669;51.076;3.714;2023-02-27T00:35:03;1.80;1.00
21023;DHT22;10669;51.076;3.714;2023-02-27T00:37:29;1.80;1.00
21023;DHT22;10669;51.076;3.714;2023-02-27T00:39:58;1.80;1.00
21023;DHT22;10669;51.076;3.714;2023-02-27T00:42:26;1.80;1.00
21023;DHT22;10669;51.076;3.714;2023-02-27T00:44:55;1.80;1.00
21023;DHT22;10669;51.076;3.714;2023-02-27T00:47:24;1.80;1.00
21023;DHT22;10669;51.076;3.714;2023-02-27T00:49:53;1.60;1.00
21023;DHT22;10669;51.076;3.714;2023-02-27T00:52:19;1.70;1.00
21023;DHT22;10669;51.076;3.714;2023-02-27T00:54:47;1.70;1.00
21023;DHT22;10669;51.076;3.714;2023-02-27T00:57:14;1.80;1.00
21023;DHT22;10669;51.076;3.714;2023-02-27T00:59:40;1.70;1.00
21023;DHT22;10669;51.076;3.714;2023-02-27T01:02:06;1.70;1.00
21023;DHT22;10669;51.076;3.714;2023-02-27T01:04:33;1.70;1.00
21023;DHT22;10669;51.076;3.714;2023-02-27T01:07:00;1.70;1.00
21023;DHT22;10669;51.076;3.714;2023-02-27T01:09:32;1.70;1.00
21023;DHT22;10669;51.076;3.714;2023-02-27T01:11:57;1.70;1.00
21023;DHT22;10669;51.076;3.714;2023-02-27T01:16:55;1.60;1.00
21023;DHT22;10669;51.076;3.714;2023-02-27T01:19:25;1.60;1.00
21023;DHT22;10669;51.076;3.714;2023-02-27T01:22:04;1.70;1.00
21023;DHT22;10669;51.076;3.714;2023-02-27T01:24:30;1.70;1.00
21023;DHT22;10669;51.076;3.714;2023-02-27T01:26:56;1.60;1.00
21023;DHT22;10669;51.076;3.714;2023-02-27T01:29:25;1.60;1.00
21023;DHT22;10669;51.076;3.714;2023-02-27T01:32:09;1.60;1.00
21023;DHT22;10669;51.076;3.714;2023-02-27T01:34:37;1.70;1.00
21023;DHT22;10669;51.076;3.714;2023-02-27T01:39:32;1.60;1.00
21023;DHT22;10669;51.076;3.714;2023-02-27T01:47:34;1.60;1.00
21023;DHT22;10669;51.076;3.714;2023-02-27T01:50:03;1.60;1.00
21023;DHT22;10669;51.076;3.714;2023-02-27T01:52:30;1.60;1.00
21023;DHT22;10669;51.076;3.714;2023-02-27T01:55:13;1.40;1.00
21023;DHT22;10669;51.076;3.714;2023-02-27T01:57:40;1.50;1.00
21023;DHT22;10669;51.076;3.714;2023-02-27T02:00:09;1.50;1.00
21023;DHT22;10669;51.076;3.714;2023-02-27T02:02:36;1.40;1.00
21023;DHT22;10669;51.076;3.714;2023-02-27T02:07:34;1.20;1.00
21023;DHT22;10669;51.076;3.714;2023-02-27T02:12:36;1.20;1.00
21023;DHT22;10669;51.076;3.714;2023-02-27T02:15:04;1.10;1.00
21023;DHT22;10669;51.076;3.714;2023-02-27T02:28:31;1.20;1.00
21023;DHT22;10669;51.076;3.714;2023-02-27T02:39:12;1.30;1.00
21023;DHT22;10669;51.076;3.714;2023-02-27T02:41:47;1.30;1.00
21023;DHT22;10669;51.076;3.714;2023-02-27T02:44:20;1.30;1.00
21023;DHT22;10669;51.076;3.714;2023-02-27T02:57:34;1.30;1.00
21023;DHT22;10669;51.076;3.714;2023-02-27T03:00:14;1.30;1.00
21023;DHT22;10669;51.076;3.714;2023-02-27T03:08:04;1.30;1.00
21023;DHT22;10669;51.076;3.714;2023-02-27T03:10:37;1.30;1.00
21023;DHT22;10669;51.076;3.714;2023-02-27T03:13:08;1.40;1.00
21023;DHT22;10669;51.076;3.714;2023-02-27T03:18:44;1.40;1.00
21023;DHT22;10669;51.076;3.714;2023-02-27T03:21:15;1.30;1.00
21023;DHT22;10669;51.076;3.714;2023-02-27T03:23:46;1.30;1.00
21023;DHT22;10669;51.076;3.714;2023-02-27T03:26:16;1.30;1.00
21023;DHT22;10669;51.076;3.714;2023-02-27T03:31:19;1.30;1.00
21023;DHT22;10669;51.076;3.714;2023-02-27T03:33:52;1.30;1.00
21023;DHT22;10669;51.076;3.714;2023-02-27T03:39:09;1.30;1.00
21023;DHT22;10669;51.076;3.714;2023-02-27T03:46:32;1.30;1.00
21023;DHT22;10669;51.076;3.714;2023-02-27T03:49:00;1.30;1.00
21023;DHT22;10669;51.076;3.714;2023-02-27T03:51:32;1.20;1.00
21023;DHT22;10669;51.076;3.714;2023-02-27T03:54:14;1.30;1.00
21023;DHT22;10669;51.076;3.714;2023-02-27T03:56:43;1.20;1.00
21023;DHT22;10669;51.076;3.714;2023-02-27T03:59:11;1.30;1.00
21023;DHT22;10669;51.076;3.714;2023-02-27T04:01:37;1.20;1.00
21023;DHT22;10669;51.076;3.714;2023-02-27T04:04:04;1.10;1.00
21023;DHT22;10669;51.076;3.714;2023-02-27T04:06:37;1.50;1.00
21023;DHT22;10669;51.076;3.714;2023-02-27T04:11:55;1.10;1.00
21023;DHT22;10669;51.076;3.714;2023-02-27T04:14:34;1.10;1.00
21023;DHT22;10669;51.076;3.714;2023-02-27T04:17:10;1.10;1.00
21023;DHT22;10669;51.076;3.714;2023-02-27T04:22:36;1.10;1.00
21023;DHT22;10669;51.076;3.714;2023-02-27T04:25:21;1.10;1.00
21023;DHT22;10669;51.076;3.714;2023-02-27T04:28:06;1.10;1.00
21023;DHT22;10669;51.076;3.714;2023-02-27T04:30:40;1.00;1.00
21023;DHT22;10669;51.076;3.714;2023-02-27T04:35:58;1.00;1.00
21023;DHT22;10669;51.076;3.714;2023-02-27T04:38:28;1.00;1.00
21023;DHT22;10669;51.076;3.714;2023-02-27T04:41:00;1.00;1.00
21023;DHT22;10669;51.076;3.714;2023-02-27T04:45:58;0.90;1.00
21023;DHT22;10669;51.076;3.714;2023-02-27T04:51:11;1.00;1.00
21023;DHT22;10669;51.076;3.714;2023-02-27T04:53:40;0.90;1.00
21023;DHT22;10669;51.076;3.714;2023-02-27T04:56:18;0.90;1.00
21023;DHT22;10669;51.076;3.714;2023-02-27T04:58:50;0.90;1.00
21023;DHT22;10669;51.076;3.714;2023-02-27T05:01:36;0.90;1.00
21023;DHT22;10669;51.076;3.714;2023-02-27T05:04:03;0.80;1.00
21023;DHT22;10669;51.076;3.714;2023-02-27T05:06:33;0.80;1.00
21023;DHT22;10669;51.076;3.714;2023-02-27T05:11:55;0.80;1.00
21023;DHT22;10669;51.076;3.714;2023-02-27T05:14:36;0.80;1.00
21023;DHT22;10669;51.076;3.714;2023-02-27T05:17:47;0.90;1.00
21023;DHT22;10669;51.076;3.714;2023-02-27T05:19:59;0.90;1.00
21023;DHT22;10669;51.076;3.714;2023-02-27T05:36:02;0.80;1.00
21023;DHT22;10669;51.076;3.714;2023-02-27T05:38:50;0.70;1.00
21023;DHT22;10669;51.076;3.714;2023-02-27T05:41:18;0.70;1.00
21023;DHT22;10669;51.076;3.714;2023-02-27T05:43:55;0.70;1.00
21023;DHT22;10669;51.076;3.714;2023-02-27T05:46:31;0.70;1.00
21023;DHT22;10669;51.076;3.714;2023-02-27T05:49:03;0.60;1.00
21023;DHT22;10669;51.076;3.714;2023-02-27T05:51:33;0.40;1.00
21023;DHT22;10669;51.076;3.714;2023-02-27T05:54:06;0.50;1.00
21023;DHT22;10669;51.076;3.714;2023-02-27T05:56:37;0.50;1.00
21023;DHT22;10669;51.076;3.714;2023-02-27T05:59:10;0.50;1.00
21023;DHT22;10669;51.076;3.714;2023-02-27T06:01:48;0.60;1.00
21023;DHT22;10669;51.076;3.714;2023-02-27T06:04:14;0.50;1.00
21023;DHT22;10669;51.076;3.714;2023-02-27T06:06:43;0.30;1.00
21023;DHT22;10669;51.076;3.714;2023-02-27T06:09:15;0.50;1.00
21023;DHT22;10669;51.076;3.714;2023-02-27T06:11:43;0.50;1.00
21023;DHT22;10669;51.076;3.714;2023-02-27T06:14:09;0.50;1.00
21023;DHT22;10669;51.076;3.714;2023-02-27T06:16:35;0.50;1.00
21023;DHT22;10669;51.076;3.714;2023-02-27T06:19:11;0.50;1.00
21023;DHT22;10669;51.076;3.714;2023-02-27T06:24:08;0.50;1.00
21023;DHT22;10669;51.076;3.714;2023-02-27T06:26:36;0.50;1.00
21023;DHT22;10669;51.076;3.714;2023-02-27T06:29:05;0.50;1.00
21023;DHT22;10669;51.076;3.714;2023-02-27T06:31:31;0.50;1.00
21023;DHT22;10669;51.076;3.714;2023-02-27T06:33:56;0.60;1.00
21023;DHT22;10669;51.076;3.714;2023-02-27T06:36:25;0.60;1.00
21023;DHT22;10669;51.076;3.714;2023-02-27T06:38:53;0.70;1.00
21023;DHT22;10669;51.076;3.714;2023-02-27T06:41:24;0.70;1.00
21023;DHT22;10669;51.076;3.714;2023-02-27T06:43:54;0.70;1.00
21023;DHT22;10669;51.076;3.714;2023-02-27T06:46:26;0.70;1.00
21023;DHT22;10669;51.076;3.714;2023-02-27T06:48:53;0.70;1.00
21023;DHT22;10669;51.076;3.714;2023-02-27T06:51:20;0.70;1.00
21023;DHT22;10669;51.076;3.714;2023-02-27T06:53:50;0.70;1.00
21023;DHT22;10669;51.076;3.714;2023-02-27T06:56:15;0.70;1.00
21023;DHT22;10669;51.076;3.714;2023-02-27T06:58:42;0.70;1.00
21023;DHT22;10669;51.076;3.714;2023-02-27T07:01:08;0.70;1.00
21023;DHT22;10669;51.076;3.714;2023-02-27T07:03:34;0.70;1.00
21023;DHT22;10669;51.076;3.714;2023-02-27T07:06:00;0.80;1.00
21023;DHT22;10669;51.076;3.714;2023-02-27T07:08:29;0.80;1.00
21023;DHT22;10669;51.076;3.714;2023-02-27T07:10:59;0.90;1.00
21023;DHT22;10669;51.076;3.714;2023-02-27T07:15:54;1.00;1.00
21023;DHT22;10669;51.076;3.714;2023-02-27T07:20:56;1.00;1.00
21023;DHT22;10669;51.076;3.714;2023-02-27T07:28:21;1.10;1.00
21023;DHT22;10669;51.076;3.714;2023-02-27T07:30:53;1.10;1.00
21023;DHT22;10669;51.076;3.714;2023-02-27T07:33:19;1.20;1.00
21023;DHT22;10669;51.076;3.714;2023-02-27T07:35:48;1.20;1.00
21023;DHT22;10669;51.076;3.714;2023-02-27T07:38:20;1.20;1.00
21023;DHT22;10669;51.076;3.714;2023-02-27T07:40:51;1.20;1.00
21023;DHT22;10669;51.076;3.714;2023-02-27T07:43:20;1.30;1.00
21023;DHT22;10669;51.076;3.714;2023-02-27T07:45:46;1.40;1.00
21023;DHT22;10669;51.076;3.714;2023-02-27T07:48:11;1.40;1.00
21023;DHT22;10669;51.076;3.714;2023-02-27T07:50:38;1.50;1.00
21023;DHT22;10669;51.076;3.714;2023-02-27T07:53:04;1.50;1.00
21023;DHT22;10669;51.076;3.714;2023-02-27T07:55:32;1.60;1.00
21023;DHT22;10669;51.076;3.714;2023-02-27T07:57:57;1.60;1.00
21023;DHT22;10669;51.076;3.714;2023-02-27T08:00:25;1.60;1.00
21023;DHT22;10669;51.076;3.714;2023-02-27T08:02:51;1.60;1.00
21023;DHT22;10669;51.076;3.714;2023-02-27T08:05:17;1.60;1.00
21023;DHT22;10669;51.076;3.714;2023-02-27T08:07:45;1.60;1.00
21023;DHT22;10669;51.076;3.714;2023-02-27T08:10:11;1.70;1.00
21023;DHT22;10669;51.076;3.714;2023-02-27T08:12:40;1.70;1.00
21023;DHT22;10669;51.076;3.714;2023-02-27T08:15:08;1.70;1.00
21023;DHT22;10669;51.076;3.714;2023-02-27T08:17:34;1.80;1.00
21023;DHT22;10669;51.076;3.714;2023-02-27T08:20:00;1.80;1.00
21023;DHT22;10669;51.076;3.714;2023-02-27T08:22:28;1.80;1.00
21023;DHT22;10669;51.076;3.714;2023-02-27T08:24:58;1.80;1.00
21023;DHT22;10669;51.076;3.714;2023-02-27T08:27:27;1.90;1.00
21023;DHT22;10669;51.076;3.714;2023-02-27T08:29:54;2.00;1.00
21023;DHT22;10669;51.076;3.714;2023-02-27T08:32:31;2.00;1.00
21023;DHT22;10669;51.076;3.714;2023-02-27T08:35:01;2.10;1.00
21023;DHT22;10669;51.076;3.714;2023-02-27T08:37:30;2.10;1.00
21023;DHT22;10669;51.076;3.714;2023-02-27T08:42:24;2.10;1.00
21023;DHT22;10669;51.076;3.714;2023-02-27T08:44:52;2.10;1.00
21023;DHT22;10669;51.076;3.714;2023-02-27T08:47:21;2.20;1.00
21023;DHT22;10669;51.076;3.714;2023-02-27T08:49:50;2.20;1.00
21023;DHT22;10669;51.076;3.714;2023-02-27T08:52:18;2.30;1.00
21023;DHT22;10669;51.076;3.714;2023-02-27T08:57:16;2.50;1.00
21023;DHT22;10669;51.076;3.714;2023-02-27T08:59:42;2.40;1.00
21023;DHT22;10669;51.076;3.714;2023-02-27T09:02:08;2.40;1.00
21023;DHT22;10669;51.076;3.714;2023-02-27T09:04:36;2.40;1.00
21023;DHT22;10669;51.076;3.714;2023-02-27T09:07:01;2.50;1.00
21023;DHT22;10669;51.076;3.714;2023-02-27T09:09:31;2.70;1.00
21023;DHT22;10669;51.076;3.714;2023-02-27T09:11:59;2.70;1.00
21023;DHT22;10669;51.076;3.714;2023-02-27T09:14:25;2.70;1.00
21023;DHT22;10669;51.076;3.714;2023-02-27T09:16:53;2.70;1.00
21023;DHT22;10669;51.076;3.714;2023-02-27T09:19:25;2.80;1.00
21023;DHT22;10669;51.076;3.714;2023-02-27T09:21:58;2.80;1.00
21023;DHT22;10669;51.076;3.714;2023-02-27T09:24:25;2.80;99.90
21023;DHT22;10669;51.076;3.714;2023-02-27T09:27:01;2.80;99.90
21023;DHT22;10669;51.076;3.714;2023-02-27T09:29:30;2.80;99.90
21023;DHT22;10669;51.076;3.714;2023-02-27T09:31:58;2.90;99.90
21023;DHT22;10669;51.076;3.714;2023-02-27T09:34:24;3.00;99.90
21023;DHT22;10669;51.076;3.714;2023-02-27T09:36:59;3.10;99.90
21023;DHT22;10669;51.076;3.714;2023-02-27T09:39:27;3.30;99.90
21023;DHT22;10669;51.076;3.714;2023-02-27T09:41:56;3.30;99.90
21023;DHT22;10669;51.076;3.714;2023-02-27T09:47:09;3.60;1.00
21023;DHT22;10669;51.076;3.714;2023-02-27T09:49:45;3.60;1.00
21023;DHT22;10669;51.076;3.714;2023-02-27T09:52:14;3.70;1.00
21023;DHT22;10669;51.076;3.714;2023-02-27T09:54:40;3.50;99.90
21023;DHT22;10669;51.076;3.714;2023-02-27T09:57:09;3.50;1.00
21023;DHT22;10669;51.076;3.714;2023-02-27T10:18:00;3.90;1.00
21023;DHT22;10669;51.076;3.714;2023-02-27T10:22:59;3.90;1.00
21023;DHT22;10669;51.076;3.714;2023-02-27T10:25:29;4.00;99.90
21023;DHT22;10669;51.076;3.714;2023-02-27T10:28:00;4.00;1.00
21023;DHT22;10669;51.076;3.714;2023-02-27T10:30:28;4.20;1.00
21023;DHT22;10669;51.076;3.714;2023-02-27T10:33:39;4.30;1.00
21023;DHT22;10669;51.076;3.714;2023-02-27T10:35:40;4.40;99.90
21023;DHT22;10669;51.076;3.714;2023-02-27T10:38:10;4.60;1.00
21023;DHT22;10669;51.076;3.714;2023-02-27T10:40:38;4.60;99.90
21023;DHT22;10669;51.076;3.714;2023-02-27T10:45:36;4.70;1.00
21023;DHT22;10669;51.076;3.714;2023-02-27T10:50:49;4.80;99.90
21023;DHT22;10669;51.076;3.714;2023-02-27T10:53:20;4.90;1.00
21023;DHT22;10669;51.076;3.714;2023-02-27T10:55:58;4.80;99.90
21023;DHT22;10669;51.076;3.714;2023-02-27T10:58:34;4.70;1.00
21023;DHT22;10669;51.076;3.714;2023-02-27T11:03:31;4.80;1.00
21023;DHT22;10669;51.076;3.714;2023-02-27T11:05:58;4.90;1.00
21023;DHT22;10669;51.076;3.714;2023-02-27T11:08:27;5.00;1.00
21023;DHT22;10669;51.076;3.714;2023-02-27T11:11:02;4.80;99.90
21023;DHT22;10669;51.076;3.714;2023-02-27T11:13:35;4.80;99.90
21023;DHT22;10669;51.076;3.714;2023-02-27T11:16:12;4.90;99.90
21023;DHT22;10669;51.076;3.714;2023-02-27T11:18:39;4.90;1.00
21023;DHT22;10669;51.076;3.714;2023-02-27T11:23:37;5.10;1.00
21023;DHT22;10669;51.076;3.714;2023-02-27T11:26:14;5.20;1.00
21023;DHT22;10669;51.076;3.714;2023-02-27T11:28:41;5.10;91.10
21023;DHT22;10669;51.076;3.714;2023-02-27T11:31:19;5.10;1.00
21023;DHT22;10669;51.076;3.714;2023-02-27T11:33:47;5.30;99.90
21023;DHT22;10669;51.076;3.714;2023-02-27T11:36:15;5.10;99.90
21023;DHT22;10669;51.076;3.714;2023-02-27T11:38:41;5.00;1.00
21023;DHT22;10669;51.076;3.714;2023-02-27T11:41:17;5.20;1.00
21023;DHT22;10669;51.076;3.714;2023-02-27T11:43:49;5.20;1.00
21023;DHT22;10669;51.076;3.714;2023-02-27T11:46:20;5.30;99.90
21023;DHT22;10669;51.076;3.714;2023-02-27T11:48:50;5.20;1.00
21023;DHT22;10669;51.076;3.714;2023-02-27T11:56:42;5.30;99.90
21023;DHT22;10669;51.076;3.714;2023-02-27T12:04:51;5.40;1.00
21023;DHT22;10669;51.076;3.714;2023-02-27T12:15:16;5.70;1.00
21023;DHT22;10669;51.076;3.714;2023-02-27T12:23:32;5.70;99.90
21023;DHT22;10669;51.076;3.714;2023-02-27T12:31:41;5.80;1.00
21023;DHT22;10669;51.076;3.714;2023-02-27T12:34:26;5.80;1.00
21023;DHT22;10669;51.076;3.714;2023-02-27T12:37:02;6.00;1.00
21023;DHT22;10669;51.076;3.714;2023-02-27T12:39:30;6.20;99.90
21023;DHT22;10669;51.076;3.714;2023-02-27T12:42:11;6.00;1.00
21023;DHT22;10669;51.076;3.714;2023-02-27T12:45:02;6.00;1.00
21023;DHT22;10669;51.076;3.714;2023-02-27T12:50:17;5.90;1.00
21023;DHT22;10669;51.076;3.714;2023-02-27T12:55:42;6.10;1.00
21023;DHT22;10669;51.076;3.714;2023-02-27T13:01:01;6.50;1.00
21023;DHT22;10669;51.076;3.714;2023-02-27T13:03:38;6.40;1.00
21023;DHT22;10669;51.076;3.714;2023-02-27T13:09:18;6.40;1.00
21023;DHT22;10669;51.076;3.714;2023-02-27T13:12:02;6.30;1.00
21023;DHT22;10669;51.076;3.714;2023-02-27T13:17:17;6.70;1.00
21023;DHT22;10669;51.076;3.714;2023-02-27T13:19:51;6.80;1.00
21023;DHT22;10669;51.076;3.714;2023-02-27T13:22:36;6.80;1.00
21023;DHT22;10669;51.076;3.714;2023-02-27T13:25:08;6.90;1.00
21023;DHT22;10669;51.076;3.714;2023-02-27T13:27:43;6.70;1.00
21023;DHT22;10669;51.076;3.714;2023-02-27T13:30:23;6.40;1.00
21023;DHT22;10669;51.076;3.714;2023-02-27T13:35:45;6.60;1.00
21023;DHT22;10669;51.076;3.714;2023-02-27T13:38:28;6.70;1.00
21023;DHT22;10669;51.076;3.714;2023-02-27T13:43:36;6.70;1.00
21023;DHT22;10669;51.076;3.714;2023-02-27T13:57:06;6.60;1.00
21023;DHT22;10669;51.076;3.714;2023-02-27T13:59:35;6.80;1.00
21023;DHT22;10669;51.076;3.714;2023-02-27T14:04:47;7.00;1.00
21023;DHT22;10669;51.076;3.714;2023-02-27T14:07:27;6.80;99.90
21023;DHT22;10669;51.076;3.714;2023-02-27T14:10:04;6.80;1.00
21023;DHT22;10669;51.076;3.714;2023-02-27T14:12:38;6.80;1.00
21023;DHT22;10669;51.076;3.714;2023-02-27T14:15:06;6.80;99.90
21023;DHT22;10669;51.076;3.714;2023-02-27T14:17:53;6.80;1.00
21023;DHT22;10669;51.076;3.714;2023-02-27T14:25:43;6.90;1.00
21023;DHT22;10669;51.076;3.714;2023-02-27T14:28:18;6.90;1.00
21023;DHT22;10669;51.076;3.714;2023-02-27T14:31:01;7.10;1.00
21023;DHT22;10669;51.076;3.714;2023-02-27T14:36:03;7.50;1.00
21023;DHT22;10669;51.076;3.714;2023-02-27T14:38:31;7.70;99.90
21023;DHT22;10669;51.076;3.714;2023-02-27T14:43:57;7.30;1.00
21023;DHT22;10669;51.076;3.714;2023-02-27T14:46:25;7.20;99.90
21023;DHT22;10669;51.076;3.714;2023-02-27T14:49:05;7.20;1.00
21023;DHT22;10669;51.076;3.714;2023-02-27T14:51:38;7.10;99.90
21023;DHT22;10669;51.076;3.714;2023-02-27T14:54:28;7.30;1.00
21023;DHT22;10669;51.076;3.714;2023-02-27T14:56:57;7.30;1.00
21023;DHT22;10669;51.076;3.714;2023-02-27T14:59:32;7.60;99.90
21023;DHT22;10669;51.076;3.714;2023-02-27T15:01:59;7.80;99.90
21023;DHT22;10669;51.076;3.714;2023-02-27T15:04:28;7.80;99.90
21023;DHT22;10669;51.076;3.714;2023-02-27T15:06:55;8.30;99.90
21023;DHT22;10669;51.076;3.714;2023-02-27T15:09:22;8.50;99.90
21023;DHT22;10669;51.076;3.714;2023-02-27T15:11:54;8.20;99.90
21023;DHT22;10669;51.076;3.714;2023-02-27T15:14:22;8.20;99.90
21023;DHT22;10669;51.076;3.714;2023-02-27T15:16:54;8.00;99.90
21023;DHT22;10669;51.076;3.714;2023-02-27T15:19:26;7.70;1.00
21023;DHT22;10669;51.076;3.714;2023-02-27T15:21:53;7.60;1.00
21023;DHT22;10669;51.076;3.714;2023-02-27T15:27:07;6.70;99.90
21023;DHT22;10669;51.076;3.714;2023-02-27T15:29:40;6.60;99.90
21023;DHT22;10669;51.076;3.714;2023-02-27T15:32:06;6.30;99.90
21023;DHT22;10669;51.076;3.714;2023-02-27T15:34:43;6.30;1.00
21023;DHT22;10669;51.076;3.714;2023-02-27T15:37:11;6.30;1.00
21023;DHT22;10669;51.076;3.714;2023-02-27T15:39:42;6.60;99.90
21023;DHT22;10669;51.076;3.714;2023-02-27T15:42:10;6.70;99.90
21023;DHT22;10669;51.076;3.714;2023-02-27T15:44:47;6.80;99.90
21023;DHT22;10669;51.076;3.714;2023-02-27T15:47:27;7.00;99.90
21023;DHT22;10669;51.076;3.714;2023-02-27T15:49:57;7.10;1.00
21023;DHT22;10669;51.076;3.714;2023-02-27T15:52:24;6.90;1.70
21023;DHT22;10669;51.076;3.714;2023-02-27T15:54:58;6.80;99.90
21023;DHT22;10669;51.076;3.714;2023-02-27T15:57:25;6.60;12.50
21023;DHT22;10669;51.076;3.714;2023-02-27T16:02:30;6.10;99.90
21023;DHT22;10669;51.076;3.714;2023-02-27T16:04:59;6.00;1.00
21023;DHT22;10669;51.076;3.714;2023-02-27T16:07:24;6.10;1.00
21023;DHT22;10669;51.076;3.714;2023-02-27T16:09:55;6.00;8.70
21023;DHT22;10669;51.076;3.714;2023-02-27T16:15:39;5.90;1.00
21023;DHT22;10669;51.076;3.714;2023-02-27T16:17:50;5.80;99.90
21023;DHT22;10669;51.076;3.714;2023-02-27T16:23:01;5.70;1.00
21023;DHT22;10669;51.076;3.714;2023-02-27T16:25:28;5.80;1.00
21023;DHT22;10669;51.076;3.714;2023-02-27T16:27:55;5.80;1.00
21023;DHT22;10669;51.076;3.714;2023-02-27T16:30:24;5.70;1.00
21023;DHT22;10669;51.076;3.714;2023-02-27T16:35:21;5.70;1.00
21023;DHT22;10669;51.076;3.714;2023-02-27T16:37:47;5.70;1.00
21023;DHT22;10669;51.076;3.714;2023-02-27T16:40:27;5.60;1.00
21023;DHT22;10669;51.076;3.714;2023-02-27T16:42:55;5.60;99.90
21023;DHT22;10669;51.076;3.714;2023-02-27T16:45:26;5.70;99.90
21023;DHT22;10669;51.076;3.714;2023-02-27T16:47:57;5.60;99.90
21023;DHT22;10669;51.076;3.714;2023-02-27T16:50:25;5.50;1.00
21023;DHT22;10669;51.076;3.714;2023-02-27T16:52:54;5.50;99.90
21023;DHT22;10669;51.076;3.714;2023-02-27T16:55:20;5.50;1.00
21023;DHT22;10669;51.076;3.714;2023-02-27T16:57:47;5.40;1.00
21023;DHT22;10669;51.076;3.714;2023-02-27T17:00:16;5.40;99.90
21023;DHT22;10669;51.076;3.714;2023-02-27T17:02:45;5.40;1.00
21023;DHT22;10669;51.076;3.714;2023-02-27T17:05:13;5.40;1.00
21023;DHT22;10669;51.076;3.714;2023-02-27T17:07:40;5.50;1.00
21023;DHT22;10669;51.076;3.714;2023-02-27T17:10:09;5.40;99.90
21023;DHT22;10669;51.076;3.714;2023-02-27T17:12:38;5.40;1.00
21023;DHT22;10669;51.076;3.714;2023-02-27T17:15:04;5.20;93.00
21023;DHT22;10669;51.076;3.714;2023-02-27T17:17:31;5.30;99.90
21023;DHT22;10669;51.076;3.714;2023-02-27T17:19:58;5.20;99.90
21023;DHT22;10669;51.076;3.714;2023-02-27T17:22:28;5.20;1.00
21023;DHT22;10669;51.076;3.714;2023-02-27T17:27:25;5.20;1.00
21023;DHT22;10669;51.076;3.714;2023-02-27T17:29:50;5.10;1.00
21023;DHT22;10669;51.076;3.714;2023-02-27T17:32:19;5.10;1.00
21023;DHT22;10669;51.076;3.714;2023-02-27T17:34:47;5.00;99.90
21023;DHT22;10669;51.076;3.714;2023-02-27T17:37:15;5.10;99.90
21023;DHT22;10669;51.076;3.714;2023-02-27T17:39:42;5.10;1.00
21023;DHT22;10669;51.076;3.714;2023-02-27T17:42:09;5.10;1.00
21023;DHT22;10669;51.076;3.714;2023-02-27T17:44:38;5.00;10.20
21023;DHT22;10669;51.076;3.714;2023-02-27T17:47:04;5.00;99.90
21023;DHT22;10669;51.076;3.714;2023-02-27T17:49:34;5.00;30.30
21023;DHT22;10669;51.076;3.714;2023-02-27T17:52:01;5.00;99.90
21023;DHT22;10669;51.076;3.714;2023-02-27T17:54:27;5.10;14.40
21023;DHT22;10669;51.076;3.714;2023-02-27T17:56:59;5.00;99.90
21023;DHT22;10669;51.076;3.714;2023-02-27T17:59:28;5.10;1.00
21023;DHT22;10669;51.076;3.714;2023-02-27T18:01:59;5.00;1.00
21023;DHT22;10669;51.076;3.714;2023-02-27T18:04:30;5.00;1.00
21023;DHT22;10669;51.076;3.714;2023-02-27T18:06:56;5.00;1.00
21023;DHT22;10669;51.076;3.714;2023-02-27T18:09:24;5.00;1.00
21023;DHT22;10669;51.076;3.714;2023-02-27T18:11:53;5.00;1.00
21023;DHT22;10669;51.076;3.714;2023-02-27T18:14:19;5.00;99.90
21023;DHT22;10669;51.076;3.714;2023-02-27T18:16:46;5.00;1.00
21023;DHT22;10669;51.076;3.714;2023-02-27T18:19:13;5.00;1.00
21023;DHT22;10669;51.076;3.714;2023-02-27T18:21:40;5.00;1.00
21023;DHT22;10669;51.076;3.714;2023-02-27T18:24:07;5.10;1.00
21023;DHT22;10669;51.076;3.714;2023-02-27T18:26:36;5.00;1.00
21023;DHT22;10669;51.076;3.714;2023-02-27T18:29:06;5.00;1.00
21023;DHT22;10669;51.076;3.714;2023-02-27T18:31:43;5.00;1.00
21023;DHT22;10669;51.076;3.714;2023-02-27T18:34:12;5.00;1.00
21023;DHT22;10669;51.076;3.714;2023-02-27T18:36:41;4.90;99.90
21023;DHT22;10669;51.076;3.714;2023-02-27T18:41:35;5.00;99.90
21023;DHT22;10669;51.076;3.714;2023-02-27T18:44:02;4.90;99.90
21023;DHT22;10669;51.076;3.714;2023-02-27T18:46:31;4.80;1.00
21023;DHT22;10669;51.076;3.714;2023-02-27T18:51:28;4.70;1.00
21023;DHT22;10669;51.076;3.714;2023-02-27T18:53:55;4.60;99.90
21023;DHT22;10669;51.076;3.714;2023-02-27T18:56:23;4.60;1.00
21023;DHT22;10669;51.076;3.714;2023-02-27T19:01:26;4.50;1.00
21023;DHT22;10669;51.076;3.714;2023-02-27T19:06:33;4.50;99.90
21023;DHT22;10669;51.076;3.714;2023-02-27T19:08:59;4.50;97.30
21023;DHT22;10669;51.076;3.714;2023-02-27T19:14:03;4.30;1.00
21023;DHT22;10669;51.076;3.714;2023-02-27T19:16:29;4.20;1.00
21023;DHT22;10669;51.076;3.714;2023-02-27T19:18:56;4.20;1.00
21023;DHT22;10669;51.076;3.714;2023-02-27T19:21:25;4.20;1.00
21023;DHT22;10669;51.076;3.714;2023-02-27T19:23:51;4.20;1.00
21023;DHT22;10669;51.076;3.714;2023-02-27T19:26:18;4.20;28.90
21023;DHT22;10669;51.076;3.714;2023-02-27T19:28:44;4.30;49.50
21023;DHT22;10669;51.076;3.714;2023-02-27T19:33:39;4.40;1.00
21023;DHT22;10669;51.076;3.714;2023-02-27T19:36:10;4.10;64.80
21023;DHT22;10669;51.076;3.714;2023-02-27T19:38:37;4.10;99.90
21023;DHT22;10669;51.076;3.714;2023-02-27T19:41:04;4.10;99.90
21023;DHT22;10669;51.076;3.714;2023-02-27T19:43:33;4.10;99.90
21023;DHT22;10669;51.076;3.714;2023-02-27T19:46:04;4.20;55.10
21023;DHT22;10669;51.076;3.714;2023-02-27T19:48:30;4.20;77.80
21023;DHT22;10669;51.076;3.714;2023-02-27T19:53:24;4.30;1.00
21023;DHT22;10669;51.076;3.714;2023-02-27T19:58:45;3.80;1.00
21023;DHT22;10669;51.076;3.714;2023-02-27T20:01:24;3.70;1.00
21023;DHT22;10669;51.076;3.714;2023-02-27T20:03:50;3.70;1.00
21023;DHT22;10669;51.076;3.714;2023-02-27T20:06:18;3.60;1.00
21023;DHT22;10669;51.076;3.714;2023-02-27T20:08:44;3.60;1.00
21023;DHT22;10669;51.076;3.714;2023-02-27T20:11:09;3.60;1.00
21023;DHT22;10669;51.076;3.714;2023-02-27T20:13:36;3.50;99.90
21023;DHT22;10669;51.076;3.714;2023-02-27T20:16:06;3.50;99.90
21023;DHT22;10669;51.076;3.714;2023-02-27T20:18:35;3.50;97.20
21023;DHT22;10669;51.076;3.714;2023-02-27T20:21:06;3.40;99.90
21023;DHT22;10669;51.076;3.714;2023-02-27T20:23:32;3.40;99.90
21023;DHT22;10669;51.076;3.714;2023-02-27T20:26:00;3.40;99.90
21023;DHT22;10669;51.076;3.714;2023-02-27T20:28:33;3.40;99.90
21023;DHT22;10669;51.076;3.714;2023-02-27T20:31:08;3.60;99.90
21023;DHT22;10669;51.076;3.714;2023-02-27T20:33:35;3.50;10.20